sensor_id;sensor_type;location;lat;lon;timestamp;P1;durP1;ratioP1;P2;durP2;ratioP2
68870;SDS011;55906;52.278;6.808;2022-07-23T00:00:06;4.80;;;4.00;;
68870;SDS011;55906;52.278;6.808;2022-07-23T00:02:34;4.83;;;3.27;;
68870;SDS011;55906;52.278;6.808;2022-07-23T00:05:01;5.15;;;3.70;;
68870;SDS011;55906;52.278;6.808;2022-07-23T00:07:29;6.10;;;4.10;;
68870;SDS011;55906;52.278;6.808;2022-07-23T00:09:56;6.30;;;4.05;;
68870;SDS011;55906;52.278;6.808;2022-07-23T00:12:23;4.50;;;3.42;;
68870;SDS011;55906;52.278;6.808;2022-07-23T00:14:49;4.50;;;3.33;;
68870;SDS011;55906;52.278;6.808;2022-07-23T00:17:16;4.40;;;3.15;;
68870;SDS011;55906;52.278;6.808;2022-07-23T00:19:43;4.65;;;3.55;;
68870;SDS011;55906;52.278;6.808;2022-07-23T00:22:09;4.38;;;3.13;;
68870;SDS011;55906;52.278;6.808;2022-07-23T00:24:37;5.20;;;3.53;;
68870;SDS011;55906;52.278;6.808;2022-07-23T00:27:04;4.23;;;3.17;;
68870;SDS011;55906;52.278;6.808;2022-07-23T00:29:31;4.75;;;3.60;;
68870;SDS011;55906;52.278;6.808;2022-07-23T00:31:57;5.45;;;3.60;;
68870;SDS011;55906;52.278;6.808;2022-07-23T00:34:24;5.03;;;3.53;;
68870;SDS011;55906;52.278;6.808;2022-07-23T00:36:50;4.78;;;3.30;;
68870;SDS011;55906;52.278;6.808;2022-07-23T00:39:18;4.63;;;3.13;;
68870;SDS011;55906;52.278;6.808;2022-07-23T00:41:47;4.32;;;3.22;;
68870;SDS011;55906;52.278;6.808;2022-07-23T00:44:15;3.70;;;2.78;;
68870;SDS011;55906;52.278;6.808;2022-07-23T00:46:46;5.28;;;3.70;;
68870;SDS011;55906;52.278;6.808;2022-07-23T00:49:13;5.10;;;3.53;;
68870;SDS011;55906;52.278;6.808;2022-07-23T00:51:40;4.23;;;3.03;;
68870;SDS011;55906;52.278;6.808;2022-07-23T00:54:07;3.78;;;2.60;;
68870;SDS011;55906;52.278;6.808;2022-07-23T00:56:34;4.50;;;3.60;;
68870;SDS011;55906;52.278;6.808;2022-07-23T00:59:02;4.70;;;3.00;;
68870;SDS011;55906;52.278;6.808;2022-07-23T01:01:29;5.30;;;3.47;;
68870;SDS011;55906;52.278;6.808;2022-07-23T01:03:55;4.60;;;3.53;;
68870;SDS011;55906;52.278;6.808;2022-07-23T01:06:22;4.80;;;3.40;;
68870;SDS011;55906;52.278;6.808;2022-07-23T01:08:49;6.18;;;4.05;;
68870;SDS011;55906;52.278;6.808;2022-07-23T01:11:15;4.70;;;3.50;;
68870;SDS011;55906;52.278;6.808;2022-07-23T01:13:44;5.10;;;3.63;;
68870;SDS011;55906;52.278;6.808;2022-07-23T01:16:12;4.37;;;3.40;;
68870;SDS011;55906;52.278;6.808;2022-07-23T01:18:39;4.25;;;3.13;;
68870;SDS011;55906;52.278;6.808;2022-07-23T01:21:05;4.68;;;3.45;;
68870;SDS011;55906;52.278;6.808;2022-07-23T01:23:34;5.65;;;3.40;;
68870;SDS011;55906;52.278;6.808;2022-07-23T01:26:00;4.90;;;3.88;;
68870;SDS011;55906;52.278;6.808;2022-07-23T01:28:27;5.20;;;3.53;;
68870;SDS011;55906;52.278;6.808;2022-07-23T01:30:54;4.20;;;3.33;;
68870;SDS011;55906;52.278;6.808;2022-07-23T01:33:20;4.40;;;3.38;;
68870;SDS011;55906;52.278;6.808;2022-07-23T01:35:47;4.63;;;3.33;;
68870;SDS011;55906;52.278;6.808;2022-07-23T01:38:13;5.18;;;4.28;;
68870;SDS011;55906;52.278;6.808;2022-07-23T01:40:41;4.30;;;3.37;;
68870;SDS011;55906;52.278;6.808;2022-07-23T01:43:08;4.18;;;3.22;;
68870;SDS011;55906;52.278;6.808;2022-07-23T01:45:35;4.60;;;3.55;;
68870;SDS011;55906;52.278;6.808;2022-07-23T01:48:01;4.53;;;3.10;;
68870;SDS011;55906;52.278;6.808;2022-07-23T01:50:28;4.88;;;4.28;;
68870;SDS011;55906;52.278;6.808;2022-07-23T01:52:56;4.43;;;3.43;;
68870;SDS011;55906;52.278;6.808;2022-07-23T01:58:45;4.82;;;3.95;;
68870;SDS011;55906;52.278;6.808;2022-07-23T02:01:12;4.30;;;3.50;;
68870;SDS011;55906;52.278;6.808;2022-07-23T02:03:39;5.38;;;3.95;;
68870;SDS011;55906;52.278;6.808;2022-07-23T02:06:05;6.80;;;4.40;;
68870;SDS011;55906;52.278;6.808;2022-07-23T02:08:32;5.00;;;3.88;;
68870;SDS011;55906;52.278;6.808;2022-07-23T02:10:58;4.90;;;3.65;;
68870;SDS011;55906;52.278;6.808;2022-07-23T02:13:25;5.07;;;3.58;;
68870;SDS011;55906;52.278;6.808;2022-07-23T02:15:55;6.05;;;4.50;;
68870;SDS011;55906;52.278;6.808;2022-07-23T02:18:21;4.80;;;3.90;;
68870;SDS011;55906;52.278;6.808;2022-07-23T02:20:48;4.90;;;3.60;;
68870;SDS011;55906;52.278;6.808;2022-07-23T02:23:14;4.78;;;3.63;;
68870;SDS011;55906;52.278;6.808;2022-07-23T02:25:41;4.32;;;3.28;;
68870;SDS011;55906;52.278;6.808;2022-07-23T02:28:08;4.78;;;3.78;;
68870;SDS011;55906;52.278;6.808;2022-07-23T02:30:34;5.17;;;3.70;;
68870;SDS011;55906;52.278;6.808;2022-07-23T02:33:04;5.88;;;3.50;;
68870;SDS011;55906;52.278;6.808;2022-07-23T02:35:30;5.50;;;3.70;;
68870;SDS011;55906;52.278;6.808;2022-07-23T02:37:57;4.20;;;3.13;;
68870;SDS011;55906;52.278;6.808;2022-07-23T02:40:23;4.47;;;3.35;;
68870;SDS011;55906;52.278;6.808;2022-07-23T02:42:50;4.60;;;3.80;;
68870;SDS011;55906;52.278;6.808;2022-07-23T02:45:17;4.90;;;4.20;;
68870;SDS011;55906;52.278;6.808;2022-07-23T02:47:43;4.68;;;3.83;;
68870;SDS011;55906;52.278;6.808;2022-07-23T02:50:11;5.20;;;3.88;;
68870;SDS011;55906;52.278;6.808;2022-07-23T02:52:38;4.38;;;3.20;;
68870;SDS011;55906;52.278;6.808;2022-07-23T02:55:05;4.10;;;3.17;;
68870;SDS011;55906;52.278;6.808;2022-07-23T02:57:32;6.03;;;3.92;;
68870;SDS011;55906;52.278;6.808;2022-07-23T02:59:59;4.15;;;3.22;;
68870;SDS011;55906;52.278;6.808;2022-07-23T03:02:25;6.18;;;3.45;;
68870;SDS011;55906;52.278;6.808;2022-07-23T03:04:52;5.15;;;3.90;;
68870;SDS011;55906;52.278;6.808;2022-07-23T03:07:20;4.50;;;3.60;;
68870;SDS011;55906;52.278;6.808;2022-07-23T03:09:47;5.15;;;3.72;;
68870;SDS011;55906;52.278;6.808;2022-07-23T03:12:13;4.30;;;3.40;;
68870;SDS011;55906;52.278;6.808;2022-07-23T03:14:40;5.47;;;4.22;;
68870;SDS011;55906;52.278;6.808;2022-07-23T03:17:07;5.35;;;4.05;;
68870;SDS011;55906;52.278;6.808;2022-07-23T03:19:34;4.93;;;3.90;;
68870;SDS011;55906;52.278;6.808;2022-07-23T03:22:00;4.82;;;4.20;;
68870;SDS011;55906;52.278;6.808;2022-07-23T03:24:28;4.80;;;3.90;;
68870;SDS011;55906;52.278;6.808;2022-07-23T03:27:08;4.38;;;3.10;;
68870;SDS011;55906;52.278;6.808;2022-07-23T03:29:35;4.40;;;3.47;;
68870;SDS011;55906;52.278;6.808;2022-07-23T03:32:02;4.80;;;3.47;;
68870;SDS011;55906;52.278;6.808;2022-07-23T03:34:29;4.63;;;3.38;;
68870;SDS011;55906;52.278;6.808;2022-07-23T03:36:55;5.20;;;3.72;;
68870;SDS011;55906;52.278;6.808;2022-07-23T03:39:22;4.75;;;4.05;;
68870;SDS011;55906;52.278;6.808;2022-07-23T03:41:50;6.22;;;3.97;;
68870;SDS011;55906;52.278;6.808;2022-07-23T03:44:16;4.60;;;3.20;;
68870;SDS011;55906;52.278;6.808;2022-07-23T03:46:43;5.10;;;3.75;;
68870;SDS011;55906;52.278;6.808;2022-07-23T03:49:10;4.60;;;3.85;;
68870;SDS011;55906;52.278;6.808;2022-07-23T03:51:36;4.53;;;4.07;;
68870;SDS011;55906;52.278;6.808;2022-07-23T03:54:03;4.68;;;3.85;;
68870;SDS011;55906;52.278;6.808;2022-07-23T03:56:30;4.40;;;3.43;;
68870;SDS011;55906;52.278;6.808;2022-07-23T03:58:58;4.30;;;3.15;;
68870;SDS011;55906;52.278;6.808;2022-07-23T04:01:24;5.28;;;4.25;;
68870;SDS011;55906;52.278;6.808;2022-07-23T04:03:51;5.18;;;3.58;;
68870;SDS011;55906;52.278;6.808;2022-07-23T04:06:18;4.80;;;3.25;;
68870;SDS011;55906;52.278;6.808;2022-07-23T04:08:47;4.50;;;3.37;;
68870;SDS011;55906;52.278;6.808;2022-07-23T04:11:14;4.80;;;3.97;;
68870;SDS011;55906;52.278;6.808;2022-07-23T04:13:40;4.72;;;3.67;;
68870;SDS011;55906;52.278;6.808;2022-07-23T04:16:08;4.80;;;4.10;;
68870;SDS011;55906;52.278;6.808;2022-07-23T04:18:38;4.85;;;3.95;;
68870;SDS011;55906;52.278;6.808;2022-07-23T04:21:05;5.73;;;4.30;;
68870;SDS011;55906;52.278;6.808;2022-07-23T04:23:31;6.38;;;4.78;;
68870;SDS011;55906;52.278;6.808;2022-07-23T04:25:58;6.13;;;4.30;;
68870;SDS011;55906;52.278;6.808;2022-07-23T04:28:24;4.82;;;3.58;;
68870;SDS011;55906;52.278;6.808;2022-07-23T04:30:51;5.15;;;4.13;;
68870;SDS011;55906;52.278;6.808;2022-07-23T04:33:19;4.57;;;3.43;;
68870;SDS011;55906;52.278;6.808;2022-07-23T04:35:46;5.82;;;3.80;;
68870;SDS011;55906;52.278;6.808;2022-07-23T04:38:12;4.70;;;3.97;;
68870;SDS011;55906;52.278;6.808;2022-07-23T04:40:39;5.03;;;4.15;;
68870;SDS011;55906;52.278;6.808;2022-07-23T04:43:06;4.60;;;3.92;;
68870;SDS011;55906;52.278;6.808;2022-07-23T04:45:32;4.70;;;3.50;;
68870;SDS011;55906;52.278;6.808;2022-07-23T04:47:59;4.68;;;3.45;;
68870;SDS011;55906;52.278;6.808;2022-07-23T04:50:27;5.00;;;4.10;;
68870;SDS011;55906;52.278;6.808;2022-07-23T04:52:54;4.97;;;4.10;;
68870;SDS011;55906;52.278;6.808;2022-07-23T04:55:20;4.68;;;3.92;;
68870;SDS011;55906;52.278;6.808;2022-07-23T04:57:47;4.70;;;3.83;;
68870;SDS011;55906;52.278;6.808;2022-07-23T05:00:14;5.35;;;4.43;;
68870;SDS011;55906;52.278;6.808;2022-07-23T05:02:41;5.18;;;4.07;;
68870;SDS011;55906;52.278;6.808;2022-07-23T05:05:07;6.53;;;4.40;;
68870;SDS011;55906;52.278;6.808;2022-07-23T05:07:36;5.00;;;4.30;;
68870;SDS011;55906;52.278;6.808;2022-07-23T05:10:02;5.63;;;3.83;;
68870;SDS011;55906;52.278;6.808;2022-07-23T05:12:29;5.88;;;3.70;;
68870;SDS011;55906;52.278;6.808;2022-07-23T05:14:57;5.35;;;4.32;;
68870;SDS011;55906;52.278;6.808;2022-07-23T05:17:24;5.50;;;3.78;;
68870;SDS011;55906;52.278;6.808;2022-07-23T05:19:51;5.15;;;3.97;;
68870;SDS011;55906;52.278;6.808;2022-07-23T05:22:17;5.23;;;3.57;;
68870;SDS011;55906;52.278;6.808;2022-07-23T05:24:46;6.38;;;4.28;;
68870;SDS011;55906;52.278;6.808;2022-07-23T05:27:12;4.90;;;3.95;;
68870;SDS011;55906;52.278;6.808;2022-07-23T05:29:39;6.47;;;4.97;;
68870;SDS011;55906;52.278;6.808;2022-07-23T05:32:05;6.20;;;3.83;;
68870;SDS011;55906;52.278;6.808;2022-07-23T05:34:32;5.53;;;4.23;;
68870;SDS011;55906;52.278;6.808;2022-07-23T05:37:01;4.80;;;3.65;;
68870;SDS011;55906;52.278;6.808;2022-07-23T05:39:28;5.07;;;4.00;;
68870;SDS011;55906;52.278;6.808;2022-07-23T05:41:56;5.93;;;3.90;;
68870;SDS011;55906;52.278;6.808;2022-07-23T05:44:22;5.63;;;3.88;;
68870;SDS011;55906;52.278;6.808;2022-07-23T05:46:49;6.43;;;4.30;;
68870;SDS011;55906;52.278;6.808;2022-07-23T05:49:16;6.05;;;3.97;;
68870;SDS011;55906;52.278;6.808;2022-07-23T05:51:42;5.05;;;3.88;;
68870;SDS011;55906;52.278;6.808;2022-07-23T05:54:09;6.13;;;3.45;;
68870;SDS011;55906;52.278;6.808;2022-07-23T05:56:35;4.95;;;3.58;;
68870;SDS011;55906;52.278;6.808;2022-07-23T05:59:03;4.40;;;3.40;;
68870;SDS011;55906;52.278;6.808;2022-07-23T06:01:31;4.47;;;2.95;;
68870;SDS011;55906;52.278;6.808;2022-07-23T06:03:57;4.53;;;3.10;;
68870;SDS011;55906;52.278;6.808;2022-07-23T06:06:24;4.45;;;3.45;;
68870;SDS011;55906;52.278;6.808;2022-07-23T06:08:50;4.68;;;3.13;;
68870;SDS011;55906;52.278;6.808;2022-07-23T06:11:17;4.23;;;2.70;;
68870;SDS011;55906;52.278;6.808;2022-07-23T06:13:43;4.15;;;3.20;;
68870;SDS011;55906;52.278;6.808;2022-07-23T06:16:11;4.30;;;3.20;;
68870;SDS011;55906;52.278;6.808;2022-07-23T06:18:38;5.40;;;3.78;;
68870;SDS011;55906;52.278;6.808;2022-07-23T06:21:05;4.72;;;3.33;;
68870;SDS011;55906;52.278;6.808;2022-07-23T06:23:31;4.27;;;3.03;;
68870;SDS011;55906;52.278;6.808;2022-07-23T06:25:58;4.70;;;3.50;;
68870;SDS011;55906;52.278;6.808;2022-07-23T06:28:25;4.53;;;3.03;;
68870;SDS011;55906;52.278;6.808;2022-07-23T06:30:51;3.95;;;2.63;;
68870;SDS011;55906;52.278;6.808;2022-07-23T06:33:20;6.60;;;3.90;;
68870;SDS011;55906;52.278;6.808;2022-07-23T06:35:46;5.73;;;3.70;;
68870;SDS011;55906;52.278;6.808;2022-07-23T06:38:13;4.45;;;3.08;;
68870;SDS011;55906;52.278;6.808;2022-07-23T06:40:40;4.03;;;3.05;;
68870;SDS011;55906;52.278;6.808;2022-07-23T06:43:06;4.18;;;2.58;;
68870;SDS011;55906;52.278;6.808;2022-07-23T06:45:33;5.00;;;3.42;;
68870;SDS011;55906;52.278;6.808;2022-07-23T06:48:00;4.90;;;3.10;;
68870;SDS011;55906;52.278;6.808;2022-07-23T06:50:28;5.35;;;3.67;;
68870;SDS011;55906;52.278;6.808;2022-07-23T06:52:55;4.30;;;2.78;;
68870;SDS011;55906;52.278;6.808;2022-07-23T06:55:22;5.18;;;3.22;;
68870;SDS011;55906;52.278;6.808;2022-07-23T06:57:48;5.70;;;3.50;;
68870;SDS011;55906;52.278;6.808;2022-07-23T07:00:15;4.53;;;3.20;;
68870;SDS011;55906;52.278;6.808;2022-07-23T07:02:42;4.60;;;2.90;;
68870;SDS011;55906;52.278;6.808;2022-07-23T07:05:08;6.40;;;3.15;;
68870;SDS011;55906;52.278;6.808;2022-07-23T07:07:36;4.00;;;2.85;;
68870;SDS011;55906;52.278;6.808;2022-07-23T07:10:03;4.00;;;2.83;;
68870;SDS011;55906;52.278;6.808;2022-07-23T07:12:31;3.80;;;2.60;;
68870;SDS011;55906;52.278;6.808;2022-07-23T07:14:57;3.90;;;2.72;;
68870;SDS011;55906;52.278;6.808;2022-07-23T07:17:24;4.10;;;2.83;;
68870;SDS011;55906;52.278;6.808;2022-07-23T07:19:51;5.05;;;2.80;;
68870;SDS011;55906;52.278;6.808;2022-07-23T07:22:17;4.90;;;3.13;;
68870;SDS011;55906;52.278;6.808;2022-07-23T07:24:45;7.43;;;2.93;;
68870;SDS011;55906;52.278;6.808;2022-07-23T07:27:12;4.65;;;3.03;;
68870;SDS011;55906;52.278;6.808;2022-07-23T07:29:39;4.43;;;2.70;;
68870;SDS011;55906;52.278;6.808;2022-07-23T07:32:05;5.43;;;2.97;;
68870;SDS011;55906;52.278;6.808;2022-07-23T07:34:32;4.55;;;2.95;;
68870;SDS011;55906;52.278;6.808;2022-07-23T07:36:59;4.50;;;2.77;;
68870;SDS011;55906;52.278;6.808;2022-07-23T07:39:26;4.18;;;2.92;;
68870;SDS011;55906;52.278;6.808;2022-07-23T07:41:54;5.22;;;2.85;;
68870;SDS011;55906;52.278;6.808;2022-07-23T07:44:21;4.72;;;3.05;;
68870;SDS011;55906;52.278;6.808;2022-07-23T07:46:47;5.15;;;2.50;;
68870;SDS011;55906;52.278;6.808;2022-07-23T07:49:14;5.73;;;2.63;;
68870;SDS011;55906;52.278;6.808;2022-07-23T07:51:42;4.95;;;2.63;;
68870;SDS011;55906;52.278;6.808;2022-07-23T07:54:09;4.38;;;2.83;;
68870;SDS011;55906;52.278;6.808;2022-07-23T07:56:35;5.00;;;2.38;;
68870;SDS011;55906;52.278;6.808;2022-07-23T07:59:03;5.95;;;2.50;;
68870;SDS011;55906;52.278;6.808;2022-07-23T08:01:30;5.13;;;2.27;;
68870;SDS011;55906;52.278;6.808;2022-07-23T08:03:57;4.00;;;2.83;;
68870;SDS011;55906;52.278;6.808;2022-07-23T08:06:24;5.30;;;2.65;;
68870;SDS011;55906;52.278;6.808;2022-07-23T08:08:51;4.13;;;2.30;;
68870;SDS011;55906;52.278;6.808;2022-07-23T08:11:17;4.05;;;2.40;;
68870;SDS011;55906;52.278;6.808;2022-07-23T08:13:44;5.07;;;2.00;;
68870;SDS011;55906;52.278;6.808;2022-07-23T08:16:12;4.25;;;2.15;;
68870;SDS011;55906;52.278;6.808;2022-07-23T08:18:38;4.65;;;2.10;;
68870;SDS011;55906;52.278;6.808;2022-07-23T08:21:05;4.32;;;2.20;;
68870;SDS011;55906;52.278;6.808;2022-07-23T08:23:32;5.25;;;2.30;;
68870;SDS011;55906;52.278;6.808;2022-07-23T08:25:59;3.40;;;1.80;;
68870;SDS011;55906;52.278;6.808;2022-07-23T08:28:26;3.55;;;1.88;;
68870;SDS011;55906;52.278;6.808;2022-07-23T08:30:53;3.33;;;1.85;;
68870;SDS011;55906;52.278;6.808;2022-07-23T08:33:21;4.68;;;2.85;;
68870;SDS011;55906;52.278;6.808;2022-07-23T08:35:48;3.75;;;2.40;;
68870;SDS011;55906;52.278;6.808;2022-07-23T08:38:18;4.43;;;2.30;;
68870;SDS011;55906;52.278;6.808;2022-07-23T08:40:46;3.75;;;2.47;;
68870;SDS011;55906;52.278;6.808;2022-07-23T08:43:15;4.35;;;2.25;;
68870;SDS011;55906;52.278;6.808;2022-07-23T08:45:44;4.35;;;2.20;;
68870;SDS011;55906;52.278;6.808;2022-07-23T08:48:13;5.22;;;1.98;;
68870;SDS011;55906;52.278;6.808;2022-07-23T08:50:43;4.33;;;2.00;;
68870;SDS011;55906;52.278;6.808;2022-07-23T08:53:10;5.18;;;2.38;;
68870;SDS011;55906;52.278;6.808;2022-07-23T08:55:37;5.45;;;2.47;;
68870;SDS011;55906;52.278;6.808;2022-07-23T08:58:04;6.60;;;2.22;;
68870;SDS011;55906;52.278;6.808;2022-07-23T09:00:31;4.50;;;2.50;;
68870;SDS011;55906;52.278;6.808;2022-07-23T09:02:58;4.83;;;2.10;;
68870;SDS011;55906;52.278;6.808;2022-07-23T09:05:25;5.00;;;2.25;;
68870;SDS011;55906;52.278;6.808;2022-07-23T09:08:06;4.65;;;2.45;;
68870;SDS011;55906;52.278;6.808;2022-07-23T09:10:44;5.25;;;2.60;;
68870;SDS011;55906;52.278;6.808;2022-07-23T09:15:58;3.57;;;1.97;;
68870;SDS011;55906;52.278;6.808;2022-07-23T09:18:28;5.18;;;2.05;;
68870;SDS011;55906;52.278;6.808;2022-07-23T09:21:05;5.97;;;2.42;;
68870;SDS011;55906;52.278;6.808;2022-07-23T09:23:40;4.82;;;2.00;;
68870;SDS011;55906;52.278;6.808;2022-07-23T09:29:07;4.20;;;1.60;;
68870;SDS011;55906;52.278;6.808;2022-07-23T09:31:42;3.17;;;1.60;;
68870;SDS011;55906;52.278;6.808;2022-07-23T09:34:12;4.03;;;1.85;;
68870;SDS011;55906;52.278;6.808;2022-07-23T09:36:40;3.90;;;1.48;;
68870;SDS011;55906;52.278;6.808;2022-07-23T09:39:09;3.95;;;1.38;;
68870;SDS011;55906;52.278;6.808;2022-07-23T09:41:37;4.37;;;1.40;;
68870;SDS011;55906;52.278;6.808;2022-07-23T09:44:07;4.63;;;1.20;;
68870;SDS011;55906;52.278;6.808;2022-07-23T09:46:35;4.53;;;1.55;;
68870;SDS011;55906;52.278;6.808;2022-07-23T09:49:09;3.78;;;1.33;;
68870;SDS011;55906;52.278;6.808;2022-07-23T09:51:43;3.22;;;1.33;;
68870;SDS011;55906;52.278;6.808;2022-07-23T09:54:21;5.17;;;1.77;;
68870;SDS011;55906;52.278;6.808;2022-07-23T09:56:54;4.80;;;1.75;;
68870;SDS011;55906;52.278;6.808;2022-07-23T09:59:22;3.15;;;1.15;;
68870;SDS011;55906;52.278;6.808;2022-07-23T10:01:51;3.97;;;1.40;;
68870;SDS011;55906;52.278;6.808;2022-07-23T10:04:19;3.67;;;1.35;;
68870;SDS011;55906;52.278;6.808;2022-07-23T10:06:47;3.40;;;1.10;;
68870;SDS011;55906;52.278;6.808;2022-07-23T10:09:16;2.92;;;1.02;;
68870;SDS011;55906;52.278;6.808;2022-07-23T10:11:50;4.75;;;1.38;;
68870;SDS011;55906;52.278;6.808;2022-07-23T10:14:18;3.72;;;1.20;;
68870;SDS011;55906;52.278;6.808;2022-07-23T10:16:45;3.67;;;1.20;;
68870;SDS011;55906;52.278;6.808;2022-07-23T10:19:11;3.43;;;1.20;;
68870;SDS011;55906;52.278;6.808;2022-07-23T10:21:40;3.50;;;1.00;;
68870;SDS011;55906;52.278;6.808;2022-07-23T10:24:10;3.53;;;1.20;;
68870;SDS011;55906;52.278;6.808;2022-07-23T10:26:51;3.65;;;1.25;;
68870;SDS011;55906;52.278;6.808;2022-07-23T10:29:30;4.10;;;1.30;;
68870;SDS011;55906;52.278;6.808;2022-07-23T10:32:08;2.87;;;1.00;;
68870;SDS011;55906;52.278;6.808;2022-07-23T10:34:50;2.63;;;1.10;;
68870;SDS011;55906;52.278;6.808;2022-07-23T10:37:27;3.00;;;1.48;;
68870;SDS011;55906;52.278;6.808;2022-07-23T10:40:14;3.25;;;1.10;;
68870;SDS011;55906;52.278;6.808;2022-07-23T10:42:44;2.90;;;1.02;;
68870;SDS011;55906;52.278;6.808;2022-07-23T10:45:24;3.77;;;1.50;;
68870;SDS011;55906;52.278;6.808;2022-07-23T10:47:53;3.92;;;1.30;;
68870;SDS011;55906;52.278;6.808;2022-07-23T10:50:21;3.72;;;1.20;;
68870;SDS011;55906;52.278;6.808;2022-07-23T10:55:46;3.72;;;1.23;;
68870;SDS011;55906;52.278;6.808;2022-07-23T10:58:23;3.73;;;1.00;;
68870;SDS011;55906;52.278;6.808;2022-07-23T11:01:32;3.72;;;1.25;;
68870;SDS011;55906;52.278;6.808;2022-07-23T11:04:01;3.40;;;1.27;;
68870;SDS011;55906;52.278;6.808;2022-07-23T11:09:40;3.08;;;1.00;;
68870;SDS011;55906;52.278;6.808;2022-07-23T11:15:06;3.53;;;1.33;;
68870;SDS011;55906;52.278;6.808;2022-07-23T11:17:34;3.10;;;1.20;;
68870;SDS011;55906;52.278;6.808;2022-07-23T11:22:56;3.60;;;1.30;;
68870;SDS011;55906;52.278;6.808;2022-07-23T11:25:32;3.53;;;1.20;;
68870;SDS011;55906;52.278;6.808;2022-07-23T11:28:08;2.70;;;1.02;;
68870;SDS011;55906;52.278;6.808;2022-07-23T11:30:38;4.63;;;1.20;;
68870;SDS011;55906;52.278;6.808;2022-07-23T11:33:20;3.35;;;1.20;;
68870;SDS011;55906;52.278;6.808;2022-07-23T11:35:48;3.22;;;1.30;;
68870;SDS011;55906;52.278;6.808;2022-07-23T11:38:27;4.23;;;1.40;;
68870;SDS011;55906;52.278;6.808;2022-07-23T11:40:56;4.63;;;1.50;;
68870;SDS011;55906;52.278;6.808;2022-07-23T11:43:24;4.30;;;1.40;;
68870;SDS011;55906;52.278;6.808;2022-07-23T11:45:52;3.40;;;1.20;;
68870;SDS011;55906;52.278;6.808;2022-07-23T11:48:21;3.47;;;1.20;;
68870;SDS011;55906;52.278;6.808;2022-07-23T11:50:49;3.73;;;1.00;;
68870;SDS011;55906;52.278;6.808;2022-07-23T11:53:21;3.38;;;1.10;;
68870;SDS011;55906;52.278;6.808;2022-07-23T11:55:48;3.55;;;1.17;;
68870;SDS011;55906;52.278;6.808;2022-07-23T11:58:15;4.45;;;1.10;;
68870;SDS011;55906;52.278;6.808;2022-07-23T12:00:41;3.55;;;1.30;;
68870;SDS011;55906;52.278;6.808;2022-07-23T12:03:09;4.57;;;1.30;;
68870;SDS011;55906;52.278;6.808;2022-07-23T12:05:37;5.80;;;1.42;;
68870;SDS011;55906;52.278;6.808;2022-07-23T12:08:05;3.72;;;1.40;;
68870;SDS011;55906;52.278;6.808;2022-07-23T12:10:33;3.28;;;1.20;;
68870;SDS011;55906;52.278;6.808;2022-07-23T12:13:03;3.67;;;1.25;;
68870;SDS011;55906;52.278;6.808;2022-07-23T12:15:31;2.90;;;1.00;;
68870;SDS011;55906;52.278;6.808;2022-07-23T12:18:03;2.95;;;0.98;;
68870;SDS011;55906;52.278;6.808;2022-07-23T12:20:32;3.45;;;1.30;;
68870;SDS011;55906;52.278;6.808;2022-07-23T12:23:00;3.25;;;1.15;;
68870;SDS011;55906;52.278;6.808;2022-07-23T12:25:29;4.03;;;1.10;;
68870;SDS011;55906;52.278;6.808;2022-07-23T12:27:58;4.87;;;1.40;;
68870;SDS011;55906;52.278;6.808;2022-07-23T12:30:30;4.07;;;1.00;;
68870;SDS011;55906;52.278;6.808;2022-07-23T12:32:58;3.28;;;1.15;;
68870;SDS011;55906;52.278;6.808;2022-07-23T12:35:32;3.03;;;1.00;;
68870;SDS011;55906;52.278;6.808;2022-07-23T12:38:03;4.05;;;1.30;;
68870;SDS011;55906;52.278;6.808;2022-07-23T12:40:32;3.43;;;1.20;;
68870;SDS011;55906;52.278;6.808;2022-07-23T12:43:01;3.60;;;1.02;;
68870;SDS011;55906;52.278;6.808;2022-07-23T12:45:41;4.05;;;1.10;;
68870;SDS011;55906;52.278;6.808;2022-07-23T12:48:15;3.55;;;1.00;;
68870;SDS011;55906;52.278;6.808;2022-07-23T12:50:49;3.10;;;1.10;;
68870;SDS011;55906;52.278;6.808;2022-07-23T12:53:18;3.50;;;1.20;;
68870;SDS011;55906;52.278;6.808;2022-07-23T12:55:46;3.22;;;1.08;;
68870;SDS011;55906;52.278;6.808;2022-07-23T12:58:14;3.20;;;1.10;;
68870;SDS011;55906;52.278;6.808;2022-07-23T13:00:49;3.92;;;1.17;;
68870;SDS011;55906;52.278;6.808;2022-07-23T13:03:21;3.05;;;0.95;;
68870;SDS011;55906;52.278;6.808;2022-07-23T13:05:50;3.20;;;1.10;;
68870;SDS011;55906;52.278;6.808;2022-07-23T13:08:17;3.15;;;1.15;;
68870;SDS011;55906;52.278;6.808;2022-07-23T13:10:47;3.00;;;1.00;;
68870;SDS011;55906;52.278;6.808;2022-07-23T13:13:16;3.72;;;1.08;;
68870;SDS011;55906;52.278;6.808;2022-07-23T13:15:43;4.10;;;1.10;;
68870;SDS011;55906;52.278;6.808;2022-07-23T13:18:10;3.10;;;0.97;;
68870;SDS011;55906;52.278;6.808;2022-07-23T13:20:37;2.80;;;0.98;;
68870;SDS011;55906;52.278;6.808;2022-07-23T13:23:06;3.88;;;1.27;;
68870;SDS011;55906;52.278;6.808;2022-07-23T13:25:33;3.42;;;1.00;;
68870;SDS011;55906;52.278;6.808;2022-07-23T13:28:00;3.05;;;0.90;;
68870;SDS011;55906;52.278;6.808;2022-07-23T13:30:29;2.53;;;0.87;;
68870;SDS011;55906;52.278;6.808;2022-07-23T13:32:56;6.57;;;1.10;;
68870;SDS011;55906;52.278;6.808;2022-07-23T13:35:23;3.58;;;1.20;;
68870;SDS011;55906;52.278;6.808;2022-07-23T13:37:50;4.20;;;1.00;;
68870;SDS011;55906;52.278;6.808;2022-07-23T13:40:20;3.58;;;1.20;;
68870;SDS011;55906;52.278;6.808;2022-07-23T13:42:50;3.30;;;0.90;;
68870;SDS011;55906;52.278;6.808;2022-07-23T13:45:20;3.15;;;0.80;;
68870;SDS011;55906;52.278;6.808;2022-07-23T13:47:46;3.47;;;1.00;;
68870;SDS011;55906;52.278;6.808;2022-07-23T13:50:13;4.68;;;1.00;;
68870;SDS011;55906;52.278;6.808;2022-07-23T13:52:41;3.00;;;0.90;;
68870;SDS011;55906;52.278;6.808;2022-07-23T13:55:09;2.80;;;0.90;;
68870;SDS011;55906;52.278;6.808;2022-07-23T13:57:39;3.20;;;0.98;;
68870;SDS011;55906;52.278;6.808;2022-07-23T14:00:06;3.72;;;1.00;;
68870;SDS011;55906;52.278;6.808;2022-07-23T14:02:36;3.53;;;1.00;;
68870;SDS011;55906;52.278;6.808;2022-07-23T14:05:04;3.00;;;0.90;;
68870;SDS011;55906;52.278;6.808;2022-07-23T14:07:31;2.40;;;0.80;;
68870;SDS011;55906;52.278;6.808;2022-07-23T14:09:58;3.15;;;0.80;;
68870;SDS011;55906;52.278;6.808;2022-07-23T14:12:25;4.18;;;1.20;;
68870;SDS011;55906;52.278;6.808;2022-07-23T14:14:53;3.47;;;1.00;;
68870;SDS011;55906;52.278;6.808;2022-07-23T14:17:20;3.35;;;0.90;;
68870;SDS011;55906;52.278;6.808;2022-07-23T14:19:47;3.13;;;1.00;;
68870;SDS011;55906;52.278;6.808;2022-07-23T14:22:13;3.60;;;1.15;;
68870;SDS011;55906;52.278;6.808;2022-07-23T14:24:40;3.28;;;1.27;;
68870;SDS011;55906;52.278;6.808;2022-07-23T14:27:07;3.33;;;1.08;;
68870;SDS011;55906;52.278;6.808;2022-07-23T14:29:33;3.58;;;1.02;;
68870;SDS011;55906;52.278;6.808;2022-07-23T14:32:03;2.73;;;0.90;;
68870;SDS011;55906;52.278;6.808;2022-07-23T14:34:30;3.17;;;1.10;;
68870;SDS011;55906;52.278;6.808;2022-07-23T14:36:57;3.80;;;1.20;;
68870;SDS011;55906;52.278;6.808;2022-07-23T14:39:24;2.92;;;0.95;;
68870;SDS011;55906;52.278;6.808;2022-07-23T14:41:51;3.45;;;0.98;;
68870;SDS011;55906;52.278;6.808;2022-07-23T14:44:18;3.47;;;1.10;;
68870;SDS011;55906;52.278;6.808;2022-07-23T14:46:44;3.63;;;1.10;;
68870;SDS011;55906;52.278;6.808;2022-07-23T14:49:12;3.28;;;0.90;;
68870;SDS011;55906;52.278;6.808;2022-07-23T14:51:39;3.20;;;0.90;;
68870;SDS011;55906;52.278;6.808;2022-07-23T14:54:07;3.55;;;0.90;;
68870;SDS011;55906;52.278;6.808;2022-07-23T14:56:34;3.47;;;0.90;;
68870;SDS011;55906;52.278;6.808;2022-07-23T14:59:04;2.83;;;0.80;;
68870;SDS011;55906;52.278;6.808;2022-07-23T15:01:31;3.10;;;0.90;;
68870;SDS011;55906;52.278;6.808;2022-07-23T15:03:58;3.60;;;0.90;;
68870;SDS011;55906;52.278;6.808;2022-07-23T15:06:26;3.65;;;0.73;;
68870;SDS011;55906;52.278;6.808;2022-07-23T15:08:53;2.03;;;0.63;;
68870;SDS011;55906;52.278;6.808;2022-07-23T15:11:19;2.60;;;0.90;;
68870;SDS011;55906;52.278;6.808;2022-07-23T15:13:46;2.53;;;0.90;;